Mission Field
KLVM : now visible

Airfield :











YOU CAN JOIN US ON...

 
LOGIN :

Register | Disclaimer

   EN    FR    IT 

 









Legend :    VFR   Marginal VFR   IFR   Intensive IFR   Very Intensive IFR
Visi :
Ceiling :
>= 8 km
>= 3000ft
5 to 8 km
1000 to 3000 ft
1500m to 5 km
500 to 1000 ft
800 to 1500m
200 to 500 ft
< 800m
< 200 ft
Symbols :   Thunderstorms  Fog  Heavy snow  Heavy precipitations  Wind > 20 kt







- Airport Elevation : 4660 ft


KLVM - Mission Field

CURRENT METAR :
  • 162153Z AUTO 22015G24KT 9SM CLR 28/M05 A2972 RMK AO2 PK WND 22026/2110 SLP005 T02831050

EXPIRED METARs :
  • 162053Z AUTO 22020G26KT 10SM CLR 31/M03 A2973 RMK AO2 PK WND 22026/2052 SLP005 T03111028 58020
  • 161953Z AUTO 10SM CLR 31/M07 A2975 RMK AO2 SLP015 T03061067 $

TAF KLVM
Valid from the 16 at 18:00 until the 17 at 18:00 UTC


161720Z 1618/1718 34012G21KT P6SM FEW200
TEMPO 1619/1622 21022G35KT
FM162200 21023G35KT P6SM VCTS SCT100CB
FM170100 21011KT P6SM VCTS SCT100CB
FM170500 22021G35KT P6SM VCSH SCT050 BKN100
FM170900 22030G45KT P6SM SCT050 BKN100
FM171300 22021G30KT P6SM VCSH SCT050 BKN100
No reported NOTAMs for that airfield.



MET'MAP, your aeronautical weather chart ! - Copyright ORBIFLY December 2007 - Disclaimer

ORBIFLY MET'MAP TEAM :

Programming & Development : Alexandra Zaïnal
Concept & Development : Baudouin d'Aumeries
Co-Development & Prog : Marc-Olivier Méhu
Technical & hardware support : Manuel Goepfert

Contact : metmap@orbifly.com




SOURCES & CREDITS :

   NOAA       Earth
Advisory